createdAt,value
2022-09-01T00:01:42.060Z,2.00
2022-09-01T00:04:11.194Z,1.80
2022-09-01T00:06:40.600Z,1.80
2022-09-01T00:09:10.858Z,2.03
2022-09-01T00:11:37.847Z,1.67
2022-09-01T00:14:06.766Z,1.70
2022-09-01T00:16:47.084Z,1.63
2022-09-01T00:19:18.412Z,1.50
2022-09-01T00:21:46.260Z,1.60
2022-09-01T00:24:15.305Z,1.42
2022-09-01T00:26:41.952Z,1.80
2022-09-01T00:29:08.486Z,2.13
2022-09-01T00:31:35.102Z,1.80
2022-09-01T00:34:02.106Z,1.80
2022-09-01T00:36:28.498Z,1.85
2022-09-01T00:38:54.944Z,1.65
2022-09-01T00:41:25.013Z,1.50
2022-09-01T00:43:57.714Z,1.45
2022-09-01T00:46:29.183Z,1.67
2022-09-01T00:49:07.773Z,1.52
2022-09-01T00:51:40.722Z,1.98
2022-09-01T00:54:12.387Z,1.42
2022-09-01T00:56:41.015Z,1.88
2022-09-01T00:59:14.788Z,1.90
2022-09-01T01:01:41.219Z,1.50
2022-09-01T01:04:14.808Z,1.42
2022-09-01T01:06:49.630Z,1.52
2022-09-01T01:09:21.737Z,1.55
2022-09-01T01:11:49.183Z,1.50
2022-09-01T01:14:17.270Z,1.92
2022-09-01T01:16:48.589Z,1.77
2022-09-01T01:19:59.072Z,1.55
2022-09-01T01:22:58.391Z,1.65
2022-09-01T01:25:25.452Z,1.40
2022-09-01T01:27:51.999Z,1.85
2022-09-01T01:30:20.696Z,1.80
2022-09-01T01:32:49.350Z,1.80
2022-09-01T01:35:17.360Z,2.28
2022-09-01T01:37:46.404Z,1.67
2022-09-01T01:40:16.165Z,1.77
2022-09-01T01:42:48.200Z,1.60
2022-09-01T01:45:17.524Z,1.55
2022-09-01T01:47:53.059Z,1.85
2022-09-01T01:50:23.524Z,1.60
2022-09-01T01:52:58.296Z,1.60
2022-09-01T01:55:28.716Z,1.77
2022-09-01T01:57:59.033Z,1.70
2022-09-01T02:00:32.147Z,1.75
2022-09-01T02:02:58.696Z,1.88
2022-09-01T02:05:36.061Z,1.45
2022-09-01T02:08:06.747Z,1.38
2022-09-01T02:10:36.056Z,1.98
2022-09-01T02:13:05.830Z,1.42
2022-09-01T02:15:35.827Z,1.65
2022-09-01T02:18:04.939Z,1.45
2022-09-01T02:20:32.745Z,2.20
2022-09-01T02:23:10.437Z,1.60
2022-09-01T02:26:04.976Z,1.85
2022-09-01T02:28:36.706Z,1.83
2022-09-01T02:31:04.872Z,1.73
2022-09-01T02:33:32.591Z,1.70
2022-09-01T02:36:01.991Z,1.88
2022-09-01T02:38:29.640Z,1.75
2022-09-01T02:40:58.369Z,2.05
2022-09-01T02:43:28.140Z,1.55
2022-09-01T02:45:59.825Z,1.60
2022-09-01T02:48:35.677Z,1.90
2022-09-01T02:51:14.048Z,1.58
2022-09-01T02:53:42.619Z,1.60
2022-09-01T02:56:14.158Z,1.95
2022-09-01T02:58:46.123Z,1.60
2022-09-01T03:01:22.491Z,1.70
2022-09-01T03:03:51.527Z,1.80
2022-09-01T03:06:20.893Z,1.55
2022-09-01T03:08:48.222Z,1.90
2022-09-01T03:11:14.955Z,2.03
2022-09-01T03:13:42.601Z,1.80
2022-09-01T03:16:10.421Z,1.67
2022-09-01T03:18:37.687Z,1.75
2022-09-01T03:21:08.291Z,1.60
2022-09-01T03:23:34.904Z,1.60
2022-09-01T03:26:02.197Z,1.92
2022-09-01T03:28:28.993Z,1.80
2022-09-01T03:30:57.731Z,1.60
2022-09-01T03:33:26.656Z,1.92
2022-09-01T03:35:56.167Z,1.85
2022-09-01T03:38:24.318Z,1.88
2022-09-01T03:40:58.870Z,2.10
2022-09-01T03:43:27.604Z,1.85
2022-09-01T03:46:01.736Z,1.80
2022-09-01T03:48:29.778Z,1.63
2022-09-01T03:51:02.399Z,1.60
2022-09-01T03:53:32.486Z,2.47
2022-09-01T03:55:59.974Z,1.73
2022-09-01T03:58:26.867Z,1.70
2022-09-01T04:00:56.648Z,1.73
2022-09-01T04:03:28.887Z,1.80
2022-09-01T04:06:01.352Z,1.95
2022-09-01T04:08:32.315Z,2.35
2022-09-01T04:11:23.924Z,1.88
2022-09-01T04:13:52.482Z,1.83
2022-09-01T04:17:12.256Z,1.90
2022-09-01T04:19:39.385Z,1.90
2022-09-01T04:22:07.898Z,1.63
2022-09-01T04:24:45.526Z,2.08
2022-09-01T04:27:13.696Z,2.00
2022-09-01T04:29:40.634Z,2.00
2022-09-01T04:32:12.576Z,2.38
2022-09-01T04:34:41.507Z,2.00
2022-09-01T04:37:14.685Z,1.75
2022-09-01T04:39:51.366Z,2.00
2022-09-01T04:42:21.620Z,2.25
2022-09-01T04:44:48.657Z,1.65
2022-09-01T04:47:17.020Z,2.00
2022-09-01T04:49:45.623Z,1.85
2022-09-01T04:52:12.934Z,1.92
2022-09-01T04:54:40.131Z,2.40
2022-09-01T04:57:07.379Z,2.33
2022-09-01T04:59:36.628Z,1.90
2022-09-01T05:02:03.236Z,2.28
2022-09-01T05:04:35.145Z,2.13
2022-09-01T05:07:02.875Z,2.10
2022-09-01T05:09:36.845Z,2.00
2022-09-01T05:12:23.423Z,2.38
2022-09-01T05:14:49.844Z,2.08
2022-09-01T05:17:18.527Z,2.00
2022-09-01T05:19:47.858Z,2.60
2022-09-01T05:22:18.674Z,1.95
2022-09-01T05:24:55.175Z,2.20
2022-09-01T05:27:22.799Z,2.22
2022-09-01T05:29:50.279Z,3.38
2022-09-01T05:32:16.827Z,3.00
2022-09-01T05:34:45.022Z,3.00
2022-09-01T05:37:14.428Z,2.97
2022-09-01T05:39:40.928Z,2.90
2022-09-01T05:42:08.313Z,2.40
2022-09-01T05:44:43.833Z,2.45
2022-09-01T05:47:14.766Z,2.92
2022-09-01T05:49:49.650Z,2.08
2022-09-01T05:52:16.052Z,2.80
2022-09-01T05:54:47.908Z,2.53
2022-09-01T05:57:33.834Z,2.47
2022-09-01T06:00:10.598Z,2.53
2022-09-01T06:02:42.405Z,3.20
2022-09-01T06:05:13.666Z,2.55
2022-09-01T06:07:42.630Z,2.83
2022-09-01T06:10:09.992Z,2.63
2022-09-01T06:12:36.886Z,2.50
2022-09-01T06:15:03.690Z,2.83
2022-09-01T06:17:34.658Z,2.72
2022-09-01T06:20:10.355Z,2.55
2022-09-01T06:22:37.872Z,2.80
2022-09-01T06:25:06.606Z,2.60
2022-09-01T06:27:40.687Z,2.27
2022-09-01T06:30:14.700Z,2.70
2022-09-01T06:32:45.202Z,2.42
2022-09-01T06:35:12.390Z,2.40
2022-09-01T06:37:39.958Z,2.70
2022-09-01T06:40:10.903Z,2.95
2022-09-01T06:42:37.711Z,3.10
2022-09-01T06:45:10.170Z,2.92
2022-09-01T06:47:36.723Z,2.53
2022-09-01T06:50:04.460Z,2.72
2022-09-01T06:53:31.934Z,2.38
2022-09-01T06:55:19.293Z,2.60
2022-09-01T06:58:05.775Z,2.25
2022-09-01T07:00:41.876Z,3.17
2022-09-01T07:03:11.574Z,2.67
2022-09-01T07:06:03.223Z,2.47
2022-09-01T07:16:32.534Z,2.22
2022-09-01T07:17:25.302Z,1.90
2022-09-01T07:19:53.861Z,2.10
2022-09-01T07:23:02.597Z,2.00
2022-09-01T07:25:12.057Z,2.17
2022-09-01T07:28:01.204Z,2.78
2022-09-01T07:30:29.087Z,2.47
2022-09-01T07:32:55.956Z,1.98
2022-09-01T07:35:24.946Z,2.10
2022-09-01T07:43:53.116Z,2.42
2022-09-01T07:46:38.280Z,2.13
2022-09-01T07:51:56.793Z,2.38
2022-09-01T07:54:26.066Z,2.20
2022-09-01T07:56:55.318Z,1.92
2022-09-01T07:59:22.417Z,2.28
2022-09-01T08:02:03.840Z,2.00
2022-09-01T08:04:31.654Z,2.00
2022-09-01T08:06:58.157Z,1.88
2022-09-01T08:09:37.785Z,2.05
2022-09-01T08:12:07.727Z,2.00
2022-09-01T08:14:38.563Z,1.83
2022-09-01T08:19:53.422Z,2.65
2022-09-01T08:22:32.885Z,2.08
2022-09-01T08:25:10.640Z,2.40
2022-09-01T08:27:41.482Z,2.10
2022-09-01T08:30:12.601Z,1.80
2022-09-01T08:32:43.484Z,2.25
2022-09-01T08:35:12.046Z,2.47
2022-09-01T08:37:39.960Z,2.15
2022-09-01T08:40:08.365Z,2.20
2022-09-01T08:42:50.192Z,2.88
2022-09-01T08:45:29.296Z,2.08
2022-09-01T08:49:02.601Z,2.53
2022-09-01T08:50:55.548Z,2.38
2022-09-01T08:53:40.587Z,2.83
2022-09-01T08:56:10.741Z,2.80
2022-09-01T08:58:37.504Z,2.40
2022-09-01T09:01:38.235Z,2.40
2022-09-01T09:04:30.589Z,2.58
2022-09-01T09:07:13.617Z,2.60
2022-09-01T09:09:54.201Z,2.15
2022-09-01T09:12:32.505Z,2.05
2022-09-01T09:15:09.695Z,2.30
2022-09-01T09:17:46.021Z,2.53
2022-09-01T09:20:12.385Z,2.53
2022-09-01T09:22:40.268Z,2.53
2022-09-01T09:25:19.264Z,2.30
2022-09-01T09:27:48.960Z,2.70
2022-09-01T09:30:23.030Z,2.45
2022-09-01T09:35:54.232Z,2.40
2022-09-01T09:38:28.733Z,2.00
2022-09-01T09:41:20.394Z,2.40
2022-09-01T09:43:59.189Z,2.33
2022-09-01T09:46:31.856Z,2.63
2022-09-01T09:49:10.355Z,2.13
2022-09-01T09:51:38.699Z,2.30
2022-09-01T09:54:32.343Z,3.55
2022-09-01T09:57:16.064Z,2.17
2022-09-01T10:00:01.152Z,2.05
2022-09-01T10:02:33.174Z,2.35
2022-09-01T10:05:06.651Z,2.00
2022-09-01T10:07:37.714Z,1.90
2022-09-01T10:10:30.100Z,2.25
2022-09-01T10:12:58.342Z,2.78
2022-09-01T10:15:30.675Z,2.42
2022-09-01T10:21:25.748Z,2.60
2022-09-01T10:23:52.990Z,2.15
2022-09-01T10:26:29.616Z,2.55
2022-09-01T10:29:01.648Z,2.42
2022-09-01T10:31:32.956Z,1.90
2022-09-01T10:34:05.526Z,2.30
2022-09-01T10:36:34.412Z,1.90
2022-09-01T10:39:06.208Z,1.98
2022-09-01T10:41:59.541Z,2.10
2022-09-01T10:44:36.332Z,2.33
2022-09-01T10:47:33.724Z,2.00
2022-09-01T10:50:07.685Z,2.17
2022-09-01T10:52:43.771Z,2.20
2022-09-01T10:55:25.456Z,2.20
2022-09-01T10:59:30.276Z,1.90
2022-09-01T11:01:11.078Z,2.40
2022-09-01T11:03:57.358Z,2.17
2022-09-01T11:06:42.843Z,1.90
2022-09-01T11:09:34.895Z,2.35
2022-09-01T11:12:29.961Z,2.33
2022-09-01T11:15:02.998Z,1.95
2022-09-01T11:20:33.309Z,2.00
2022-09-01T11:23:30.519Z,2.30
2022-09-01T11:26:32.344Z,1.90
2022-09-01T11:28:59.386Z,1.75
2022-09-01T11:31:30.817Z,1.90
2022-09-01T11:34:04.428Z,1.83
2022-09-01T11:36:34.992Z,2.40
2022-09-01T11:39:30.019Z,2.17
2022-09-01T11:42:10.784Z,1.95
2022-09-01T11:44:48.832Z,1.92
2022-09-01T11:47:39.623Z,2.05
2022-09-01T11:50:28.195Z,2.17
2022-09-01T11:52:54.505Z,2.10
2022-09-01T11:55:40.761Z,1.83
2022-09-01T11:58:17.159Z,2.03
2022-09-01T12:00:44.895Z,2.30
2022-09-01T12:03:23.804Z,2.25
2022-09-01T12:06:03.942Z,2.15
2022-09-01T12:08:36.289Z,2.08
2022-09-01T12:11:19.292Z,1.85
2022-09-01T12:14:11.126Z,2.17
2022-09-01T12:16:42.370Z,2.20
2022-09-01T12:19:24.451Z,2.60
2022-09-01T12:22:06.850Z,2.33
2022-09-01T12:24:37.129Z,1.95
2022-09-01T12:27:04.704Z,2.33
2022-09-01T12:29:32.988Z,2.42
2022-09-01T12:32:01.144Z,2.17
2022-09-01T12:34:33.919Z,2.05
2022-09-01T12:37:08.124Z,2.53
2022-09-01T12:39:57.332Z,2.50
2022-09-01T12:42:41.547Z,2.42
2022-09-01T12:45:11.551Z,2.35
2022-09-01T12:47:40.198Z,2.30
2022-09-01T12:50:11.455Z,2.00
2022-09-01T12:52:46.795Z,2.22
2022-09-01T12:58:10.459Z,2.17
2022-09-01T13:00:55.634Z,2.35
2022-09-01T13:03:22.795Z,2.10
2022-09-01T13:05:58.153Z,2.00
2022-09-01T13:08:32.976Z,2.60
2022-09-01T13:11:07.250Z,1.83
2022-09-01T13:13:35.219Z,2.00
2022-09-01T13:16:08.363Z,2.15
2022-09-01T13:19:10.326Z,2.20
2022-09-01T13:21:21.731Z,1.88
2022-09-01T13:23:50.731Z,2.03
2022-09-01T13:26:17.592Z,2.25
2022-09-01T13:28:45.867Z,2.30
2022-09-01T13:31:29.112Z,1.60
2022-09-01T13:34:23.176Z,1.98
2022-09-01T13:36:45.482Z,1.80
2022-09-01T13:39:13.287Z,2.00
2022-09-01T13:41:39.844Z,2.35
2022-09-01T13:44:06.790Z,2.50
2022-09-01T13:46:33.372Z,2.10
2022-09-01T13:49:03.206Z,2.30
2022-09-01T13:51:29.901Z,1.90
2022-09-01T13:53:56.449Z,2.17
2022-09-01T13:56:22.848Z,1.77
2022-09-01T13:58:49.203Z,2.00
2022-09-01T14:01:16.304Z,1.88
2022-09-01T14:03:43.835Z,1.77
2022-09-01T14:06:10.410Z,2.20
2022-09-01T14:08:36.762Z,2.33
2022-09-01T14:11:03.781Z,2.55
2022-09-01T14:13:31.396Z,1.75
2022-09-01T14:15:58.867Z,2.00
2022-09-01T14:18:32.711Z,1.85
2022-09-01T14:21:01.220Z,1.83
2022-09-01T14:23:28.244Z,2.25
2022-09-01T14:25:54.797Z,1.83
2022-09-01T14:28:22.439Z,2.33
2022-09-01T14:33:17.420Z,1.92
2022-09-01T14:35:47.204Z,2.10
2022-09-01T14:38:14.653Z,1.90
2022-09-01T14:40:42.102Z,1.80
2022-09-01T14:43:12.547Z,2.33
2022-09-01T14:45:38.953Z,1.70
2022-09-01T14:48:05.843Z,2.00
2022-09-01T14:50:32.591Z,2.20
2022-09-01T14:53:00.991Z,2.05
2022-09-01T14:55:30.289Z,2.00
2022-09-01T14:57:57.760Z,2.30
2022-09-01T15:00:25.302Z,1.98
2022-09-01T15:02:52.881Z,1.70
2022-09-01T15:05:19.614Z,1.65
2022-09-01T15:07:47.000Z,2.20
2022-09-01T15:10:15.977Z,1.58
2022-09-01T15:12:50.994Z,1.75
2022-09-01T15:15:17.754Z,1.75
2022-09-01T15:17:46.459Z,2.10
2022-09-01T15:20:31.987Z,2.20
2022-09-01T15:22:58.589Z,1.60
2022-09-01T15:25:25.465Z,1.77
2022-09-01T15:27:52.417Z,1.95
2022-09-01T15:30:20.142Z,2.20
2022-09-01T15:32:50.731Z,2.10
2022-09-01T15:35:18.623Z,1.88
2022-09-01T15:37:50.096Z,2.00
2022-09-01T15:40:17.959Z,1.85
2022-09-01T15:42:44.923Z,1.80
2022-09-01T15:45:14.917Z,1.67
2022-09-01T15:47:45.683Z,1.75
2022-09-01T15:50:16.903Z,1.58
2022-09-01T15:53:01.969Z,1.95
2022-09-01T15:55:37.152Z,1.80
2022-09-01T15:58:03.743Z,1.77
2022-09-01T16:00:30.241Z,2.40
2022-09-01T16:02:57.639Z,1.88
2022-09-01T16:05:25.093Z,1.90
2022-09-01T16:07:52.726Z,1.50
2022-09-01T16:10:19.354Z,2.10
2022-09-01T16:12:46.496Z,1.73
2022-09-01T16:15:16.394Z,1.98
2022-09-01T16:17:55.331Z,1.85
2022-09-01T16:20:35.615Z,1.70
2022-09-01T16:23:14.439Z,2.17
2022-09-01T16:25:43.844Z,1.27
2022-09-01T16:28:19.175Z,2.13
2022-09-01T16:30:48.983Z,2.03
2022-09-01T16:33:21.538Z,1.80
2022-09-01T16:36:17.625Z,1.70
2022-09-01T16:38:47.437Z,1.77
2022-09-01T16:41:31.472Z,1.60
2022-09-01T16:44:22.200Z,1.70
2022-09-01T16:47:02.186Z,1.60
2022-09-01T16:49:46.306Z,1.70
2022-09-01T16:52:23.491Z,1.90
2022-09-01T16:55:13.229Z,1.80
2022-09-01T16:57:59.474Z,1.83
2022-09-01T17:00:37.970Z,1.83
2022-09-01T17:03:17.555Z,1.98
2022-09-01T17:05:52.904Z,1.67
2022-09-01T17:08:31.150Z,2.20
2022-09-01T17:11:12.126Z,2.17
2022-09-01T17:13:42.673Z,2.40
2022-09-01T17:16:16.068Z,1.85
2022-09-01T17:18:48.131Z,3.33
2022-09-01T17:21:32.112Z,4.75
2022-09-01T17:24:24.044Z,2.08
2022-09-01T17:26:52.991Z,1.92
2022-09-01T17:29:38.852Z,1.65
2022-09-01T17:32:18.365Z,1.25
2022-09-01T17:34:48.341Z,1.65
2022-09-01T17:37:39.192Z,1.92
2022-09-01T17:40:21.561Z,1.95
2022-09-01T17:43:05.609Z,1.77
2022-09-01T17:45:51.235Z,1.70
2022-09-01T17:48:33.441Z,1.73
2022-09-01T17:51:33.259Z,2.07
2022-09-01T17:54:05.868Z,2.13
2022-09-01T17:56:43.052Z,2.42
2022-09-01T17:59:16.739Z,2.53
2022-09-01T18:02:20.882Z,2.97
2022-09-01T18:05:02.751Z,1.88
2022-09-01T18:07:48.822Z,1.90
2022-09-01T18:10:23.176Z,1.90
2022-09-01T18:12:58.423Z,1.80
2022-09-01T18:15:25.033Z,2.45
2022-09-01T18:18:24.978Z,2.08
2022-09-01T18:20:57.902Z,2.25
2022-09-01T18:25:56.243Z,3.13
2022-09-01T18:28:22.703Z,2.30
2022-09-01T18:30:59.009Z,2.95
2022-09-01T18:33:44.016Z,2.50
2022-09-01T18:36:29.340Z,2.30
2022-09-01T18:39:14.915Z,2.90
2022-09-01T18:42:03.107Z,2.88
2022-09-01T18:44:41.489Z,2.58
2022-09-01T18:47:11.775Z,2.90
2022-09-01T18:49:47.061Z,3.08
2022-09-01T18:52:39.548Z,2.97
2022-09-01T18:55:17.887Z,2.50
2022-09-01T18:57:50.275Z,2.65
2022-09-01T19:00:19.709Z,2.20
2022-09-01T19:03:18.178Z,2.03
2022-09-01T19:06:09.730Z,1.70
2022-09-01T19:08:48.348Z,1.65
2022-09-01T19:11:26.555Z,1.73
2022-09-01T19:14:20.364Z,2.00
2022-09-01T19:17:19.920Z,1.60
2022-09-01T19:20:08.468Z,1.67
2022-09-01T19:22:56.115Z,1.70
2022-09-01T19:25:38.226Z,1.75
2022-09-01T19:28:13.704Z,2.28
2022-09-01T19:30:44.674Z,2.25
2022-09-01T19:33:14.241Z,2.15
2022-09-01T19:35:43.416Z,2.08
2022-09-01T19:38:27.341Z,2.10
2022-09-01T19:41:03.613Z,1.98
2022-09-01T19:43:35.198Z,1.85
2022-09-01T19:46:29.511Z,2.20
2022-09-01T19:49:25.518Z,2.03
2022-09-01T19:52:03.547Z,2.58
2022-09-01T19:54:44.519Z,1.90
2022-09-01T19:57:32.379Z,2.17
2022-09-01T20:00:13.482Z,2.25
2022-09-01T20:02:51.394Z,2.25
2022-09-01T20:05:41.407Z,2.10
2022-09-01T20:08:14.059Z,1.90
2022-09-01T20:10:56.184Z,2.10
2022-09-01T20:13:40.595Z,1.88
2022-09-01T20:16:14.847Z,2.10
2022-09-01T20:18:51.812Z,2.30
2022-09-01T20:21:21.610Z,2.22
2022-09-01T20:24:00.693Z,2.10
2022-09-01T20:26:49.212Z,1.73
2022-09-01T20:29:29.592Z,1.92
2022-09-01T20:31:59.039Z,1.73
2022-09-01T20:34:37.337Z,1.80
2022-09-01T20:37:18.906Z,1.85
2022-09-01T20:40:32.366Z,1.90
2022-09-01T20:43:22.482Z,2.00
2022-09-01T20:45:50.245Z,2.00
2022-09-01T20:48:22.655Z,1.92
2022-09-01T20:51:21.590Z,2.67
2022-09-01T20:54:22.176Z,2.03
2022-09-01T20:57:33.523Z,2.10
2022-09-01T21:00:22.716Z,1.98
2022-09-01T21:02:58.150Z,1.48
2022-09-01T21:05:28.628Z,1.75
2022-09-01T21:08:13.874Z,2.10
2022-09-01T21:10:53.734Z,1.80
2022-09-01T21:13:29.013Z,2.10
2022-09-01T21:15:59.929Z,2.03
2022-09-01T21:18:59.339Z,2.05
2022-09-01T21:21:44.774Z,1.83
2022-09-01T21:24:11.179Z,2.83
2022-09-01T21:26:40.067Z,1.98
2022-09-01T21:29:30.996Z,1.92
2022-09-01T21:31:58.975Z,2.10
2022-09-01T21:34:26.343Z,2.38
2022-09-01T21:36:55.442Z,2.28
2022-09-01T21:39:21.986Z,2.13
2022-09-01T21:41:48.708Z,1.48
2022-09-01T21:44:15.526Z,1.80
2022-09-01T21:46:42.127Z,1.95
2022-09-01T21:49:08.607Z,1.95
2022-09-01T21:51:35.064Z,2.03
2022-09-01T21:54:01.430Z,1.38
2022-09-01T21:56:27.960Z,1.90
2022-09-01T21:58:55.384Z,1.55
2022-09-01T22:01:21.886Z,1.55
2022-09-01T22:03:48.279Z,1.70
2022-09-01T22:06:14.654Z,1.70
2022-09-01T22:08:41.790Z,1.75
2022-09-01T22:11:09.899Z,1.88
2022-09-01T22:13:36.639Z,1.48
2022-09-01T22:16:03.636Z,1.45
2022-09-01T22:18:30.070Z,1.50
2022-09-01T22:21:05.265Z,1.27
2022-09-01T22:23:31.758Z,2.08
2022-09-01T22:25:58.712Z,1.80
2022-09-01T22:28:25.207Z,1.48
2022-09-01T22:30:51.848Z,1.55
2022-09-01T22:33:19.950Z,1.67
2022-09-01T22:35:49.256Z,1.80
2022-09-01T22:38:16.295Z,1.85
2022-09-01T22:40:51.245Z,1.80
2022-09-01T22:43:18.788Z,1.60
2022-09-01T22:45:46.976Z,1.88
2022-09-01T22:48:14.555Z,1.50
2022-09-01T22:50:42.740Z,1.63
2022-09-01T22:53:09.272Z,1.73
2022-09-01T22:55:37.876Z,2.35
2022-09-01T22:58:05.372Z,1.52
2022-09-01T23:00:31.725Z,1.70
2022-09-01T23:02:58.799Z,1.50
2022-09-01T23:05:25.429Z,1.42
2022-09-01T23:07:52.610Z,1.73
2022-09-01T23:10:19.367Z,1.75
2022-09-01T23:12:45.875Z,1.50
2022-09-01T23:15:12.544Z,1.48
2022-09-01T23:17:39.561Z,1.40
2022-09-01T23:20:07.733Z,1.50
2022-09-01T23:22:34.477Z,1.60
2022-09-01T23:25:01.019Z,1.77
2022-09-01T23:27:27.465Z,1.83
2022-09-01T23:29:53.904Z,1.25
2022-09-01T23:32:20.275Z,1.10
2022-09-01T23:34:47.639Z,1.70
2022-09-01T23:37:14.299Z,1.27
2022-09-01T23:39:40.876Z,1.60
2022-09-01T23:42:07.334Z,1.40
2022-09-01T23:44:33.717Z,1.55
2022-09-01T23:47:00.071Z,1.40
2022-09-01T23:49:26.431Z,1.48
2022-09-01T23:51:54.213Z,1.30
2022-09-01T23:54:21.290Z,1.48
2022-09-01T23:56:48.369Z,1.60
2022-09-01T23:59:15.017Z,1.60
